createdAt,value
2022-12-01T02:47:12.283Z,5.50
2022-12-01T02:49:50.319Z,4.80
2022-12-01T02:50:52.888Z,6.00
2022-12-01T02:51:56.803Z,6.10
2022-12-01T02:52:59.583Z,6.10
2022-12-01T02:54:02.670Z,5.30
2022-12-01T02:55:05.537Z,6.10
2022-12-01T02:56:10.756Z,4.90
2022-12-01T02:57:14.141Z,5.40
2022-12-01T02:58:17.204Z,5.70
2022-12-01T02:59:19.587Z,5.20
2022-12-01T03:00:25.186Z,4.70
2022-12-01T03:01:46.482Z,5.50
2022-12-01T03:03:01.615Z,5.60
2022-12-01T03:04:29.012Z,5.80
2022-12-01T03:05:44.197Z,4.80
2022-12-01T03:07:11.407Z,6.00
2022-12-01T03:08:34.365Z,5.30
2022-12-01T03:09:56.763Z,4.70
2022-12-01T03:11:01.010Z,5.80
2022-12-01T03:12:23.144Z,5.20
2022-12-01T03:13:44.712Z,4.30
2022-12-01T03:14:59.914Z,6.00
2022-12-01T03:16:27.252Z,6.10
2022-12-01T03:17:48.509Z,4.70
2022-12-01T03:18:56.634Z,6.50
2022-12-01T03:20:21.793Z,5.80
2022-12-01T03:21:27.753Z,4.70
2022-12-01T03:23:48.327Z,4.40
2022-12-01T03:24:50.761Z,4.00
2022-12-01T03:25:53.413Z,4.90
2022-12-01T03:26:56.588Z,4.40
2022-12-01T03:28:21.219Z,3.50
2022-12-01T03:29:10.874Z,4.40
2022-12-01T03:30:14.497Z,4.50
2022-12-01T03:31:18.400Z,5.30
2022-12-01T03:33:53.678Z,4.60
2022-12-01T03:34:58.829Z,3.90
2022-12-01T03:36:19.832Z,5.10
2022-12-01T03:38:37.456Z,5.30
2022-12-01T03:39:39.886Z,4.10
2022-12-01T03:40:42.009Z,3.80
2022-12-01T03:41:47.900Z,5.10
2022-12-01T03:42:56.153Z,5.20
2022-12-01T03:44:07.797Z,4.90
2022-12-01T03:45:19.765Z,5.60
2022-12-01T03:46:35.688Z,4.00
2022-12-01T03:47:38.872Z,2.10
2022-12-01T03:48:41.094Z,3.10
2022-12-01T03:49:43.389Z,4.40
2022-12-01T03:52:11.043Z,4.00
2022-12-01T03:53:23.248Z,5.30
2022-12-01T03:54:32.200Z,4.90
2022-12-01T03:55:37.630Z,5.00
2022-12-01T03:58:03.881Z,5.20
2022-12-01T03:59:06.771Z,4.80
2022-12-01T04:00:09.763Z,4.30
2022-12-01T04:01:13.771Z,5.30
2022-12-01T04:02:16.828Z,2.30
2022-12-01T04:03:19.957Z,4.55
2022-12-01T04:04:23.800Z,5.10
2022-12-01T04:05:25.857Z,4.10
2022-12-01T04:06:28.080Z,4.00
2022-12-01T04:07:30.210Z,4.30
2022-12-01T04:08:32.375Z,3.90
2022-12-01T04:09:34.619Z,3.80
2022-12-01T04:10:36.941Z,0.90
2022-12-01T04:11:39.034Z,3.00
2022-12-01T04:12:41.200Z,3.50
2022-12-01T04:13:44.554Z,4.10
2022-12-01T04:14:48.152Z,4.90
2022-12-01T04:15:51.703Z,5.40
2022-12-01T04:16:54.077Z,2.80
2022-12-01T04:17:56.132Z,3.90
2022-12-01T04:18:58.117Z,4.10
2022-12-01T04:20:00.193Z,5.20
2022-12-01T04:21:03.530Z,4.00
2022-12-01T04:22:07.727Z,2.27
2022-12-01T04:23:10.303Z,4.10
2022-12-01T04:24:13.155Z,3.50
2022-12-01T04:25:15.766Z,4.40
2022-12-01T04:26:17.857Z,3.30
2022-12-01T04:27:19.956Z,3.60
2022-12-01T04:28:22.041Z,3.20
2022-12-01T04:29:24.129Z,3.30
2022-12-01T04:30:26.204Z,3.90
2022-12-01T04:31:28.589Z,4.70
2022-12-01T04:32:31.241Z,4.50
2022-12-01T04:33:34.572Z,3.60
2022-12-01T04:34:36.717Z,4.90
2022-12-01T04:35:38.803Z,4.30
2022-12-01T04:36:40.972Z,4.70
2022-12-01T04:37:43.052Z,4.40
2022-12-01T04:38:45.409Z,4.00
2022-12-01T04:39:48.791Z,3.20
2022-12-01T04:40:51.261Z,4.60
2022-12-01T04:41:53.248Z,4.90
2022-12-01T04:42:55.540Z,3.50
2022-12-01T04:43:57.643Z,3.80
2022-12-01T04:44:59.957Z,5.40
2022-12-01T04:46:03.614Z,4.40
2022-12-01T04:47:06.536Z,5.40
2022-12-01T04:48:08.810Z,3.00
2022-12-01T04:49:11.711Z,3.90
2022-12-01T04:50:14.307Z,4.60
2022-12-01T04:51:16.647Z,2.40
2022-12-01T04:52:18.743Z,3.40
2022-12-01T04:53:20.821Z,4.40
2022-12-01T04:54:23.069Z,5.00
2022-12-01T04:55:26.926Z,4.09
2022-12-01T04:56:29.962Z,3.90
2022-12-01T04:57:32.538Z,4.00
2022-12-01T04:58:35.619Z,4.60
2022-12-01T04:59:37.933Z,3.40
2022-12-01T05:00:40.676Z,4.50
2022-12-01T05:01:43.155Z,5.20
2022-12-01T05:02:46.154Z,5.80
2022-12-01T05:03:48.736Z,5.10
2022-12-01T05:04:51.088Z,4.00
2022-12-01T05:07:32.444Z,5.40
2022-12-01T05:08:34.624Z,5.00
2022-12-01T05:09:36.970Z,4.80
2022-12-01T05:10:39.275Z,4.50
2022-12-01T05:11:42.903Z,4.10
2022-12-01T05:12:45.434Z,3.80
2022-12-01T05:13:47.851Z,5.70
2022-12-01T05:14:51.724Z,3.60
2022-12-01T05:15:54.447Z,5.40
2022-12-01T05:16:56.839Z,4.20
2022-12-01T05:17:58.948Z,4.50
2022-12-01T05:19:03.104Z,3.70
2022-12-01T05:20:06.506Z,5.10
2022-12-01T05:21:10.266Z,4.00
2022-12-01T05:22:12.402Z,3.60
2022-12-01T05:23:17.022Z,2.60
2022-12-01T05:24:19.911Z,5.00
2022-12-01T05:25:22.048Z,5.40
2022-12-01T05:26:25.222Z,4.70
2022-12-01T05:27:28.712Z,4.20
2022-12-01T05:28:31.309Z,3.80
2022-12-01T05:29:33.447Z,3.70
2022-12-01T05:30:35.558Z,4.30
2022-12-01T05:31:37.715Z,4.60
2022-12-01T05:32:40.037Z,4.10
2022-12-01T05:33:42.660Z,5.20
2022-12-01T05:34:45.295Z,3.80
2022-12-01T05:35:48.496Z,4.60
2022-12-01T05:36:50.648Z,6.10
2022-12-01T05:37:52.686Z,4.60
2022-12-01T05:38:54.983Z,3.70
2022-12-01T05:39:57.355Z,1.70
2022-12-01T05:41:00.671Z,4.60
2022-12-01T05:42:03.469Z,5.10
2022-12-01T05:43:06.068Z,4.00
2022-12-01T05:44:08.123Z,4.90
2022-12-01T05:45:11.416Z,2.80
2022-12-01T05:46:14.024Z,3.20
2022-12-01T05:47:16.259Z,4.90
2022-12-01T05:48:18.480Z,4.10
2022-12-01T05:49:20.694Z,5.00
2022-12-01T05:50:23.483Z,4.10
2022-12-01T05:51:26.510Z,2.00
2022-12-01T05:52:28.635Z,4.60
2022-12-01T05:53:31.282Z,4.90
2022-12-01T05:54:34.793Z,5.20
2022-12-01T05:55:36.890Z,3.10
2022-12-01T05:56:39.620Z,4.20
2022-12-01T05:57:41.723Z,5.00
2022-12-01T05:58:43.736Z,4.20
2022-12-01T05:59:45.831Z,4.80
2022-12-01T06:00:48.341Z,4.90
2022-12-01T06:01:50.602Z,3.60
2022-12-01T06:02:53.143Z,4.70
2022-12-01T06:03:55.352Z,5.40
2022-12-01T06:04:58.072Z,4.30
2022-12-01T06:06:00.247Z,3.50
2022-12-01T06:07:04.544Z,5.80
2022-12-01T06:08:06.663Z,5.00
2022-12-01T06:09:09.276Z,5.20
2022-12-01T06:10:12.279Z,5.70
2022-12-01T06:11:14.449Z,4.20
2022-12-01T06:12:16.558Z,5.00
2022-12-01T06:13:18.764Z,4.30
2022-12-01T06:14:20.834Z,4.30
2022-12-01T06:15:23.473Z,4.80
2022-12-01T06:16:25.911Z,4.36
2022-12-01T06:17:28.723Z,4.82
2022-12-01T06:18:32.306Z,4.40
2022-12-01T06:19:35.421Z,5.40
2022-12-01T06:20:37.499Z,5.10
2022-12-01T06:21:40.618Z,5.90
2022-12-01T06:22:42.745Z,5.60
2022-12-01T06:23:45.691Z,4.27
2022-12-01T06:24:48.693Z,4.90
2022-12-01T06:25:51.296Z,4.60
2022-12-01T06:26:53.526Z,5.50
2022-12-01T06:29:09.515Z,4.50
2022-12-01T06:30:13.025Z,4.10
2022-12-01T10:23:10.315Z,13.10
2022-12-01T10:25:58.622Z,12.50
2022-12-01T10:27:04.974Z,15.40
2022-12-01T10:28:13.887Z,16.50
2022-12-01T10:30:41.138Z,19.50
2022-12-01T10:31:51.138Z,23.00
2022-12-01T10:32:56.211Z,25.70
2022-12-01T10:34:02.597Z,26.40
2022-12-01T10:35:05.072Z,26.30
2022-12-01T10:36:09.671Z,30.30
2022-12-01T10:37:22.671Z,29.60
2022-12-01T10:38:26.382Z,29.80
2022-12-01T10:39:37.580Z,28.60
2022-12-01T10:40:41.370Z,29.50
2022-12-01T10:41:45.014Z,31.80
2022-12-01T10:42:50.841Z,38.90
2022-12-01T10:43:58.659Z,41.10
2022-12-01T10:45:05.580Z,42.10
2022-12-01T10:46:23.558Z,46.40
2022-12-01T10:47:28.172Z,53.40
2022-12-01T10:48:31.387Z,54.30
2022-12-01T10:49:38.375Z,49.50
2022-12-01T10:50:45.778Z,53.60
2022-12-01T10:53:17.348Z,54.70
2022-12-01T10:54:20.272Z,50.40
2022-12-01T10:55:26.224Z,48.64
2022-12-01T10:56:28.354Z,47.70
2022-12-01T10:57:30.560Z,50.90
2022-12-01T10:58:33.641Z,45.60
2022-12-01T10:59:39.869Z,46.40
2022-12-01T11:00:58.998Z,44.60
2022-12-01T11:01:47.494Z,48.00
2022-12-01T11:02:50.319Z,48.00
2022-12-01T11:03:59.246Z,47.00
2022-12-01T11:05:05.823Z,46.00
2022-12-01T11:06:08.771Z,45.20
2022-12-01T11:07:28.886Z,45.70
2022-12-01T11:08:38.021Z,46.40
2022-12-01T11:09:40.195Z,45.10
2022-12-01T11:10:42.280Z,46.00
2022-12-01T11:11:44.373Z,49.20
2022-12-01T11:13:00.931Z,48.00
2022-12-01T11:14:06.311Z,50.00
2022-12-01T11:15:26.899Z,47.70
2022-12-01T11:18:01.656Z,51.20
2022-12-01T11:19:10.841Z,51.10
2022-12-01T11:20:27.004Z,50.00
2022-12-01T11:21:29.545Z,49.20
2022-12-01T11:22:31.918Z,50.80
2022-12-01T11:23:38.965Z,49.60
2022-12-01T11:24:43.117Z,47.40
2022-12-01T11:27:25.506Z,48.30
2022-12-01T11:28:27.851Z,46.10
2022-12-01T11:29:35.786Z,48.90
2022-12-01T11:30:40.209Z,47.00
2022-12-01T11:31:45.185Z,49.20
2022-12-01T11:32:53.351Z,46.90
2022-12-01T11:33:55.874Z,46.30
2022-12-01T11:35:03.079Z,45.30
2022-12-01T11:36:06.220Z,44.40
2022-12-01T11:37:10.727Z,45.73
2022-12-01T11:38:32.080Z,45.10
2022-12-01T11:39:37.229Z,43.20
2022-12-01T11:42:00.274Z,42.60
2022-12-01T11:43:04.358Z,42.10
2022-12-01T11:44:28.633Z,42.60
2022-12-01T11:45:23.620Z,44.80
2022-12-01T11:46:28.578Z,39.10
2022-12-01T11:47:31.650Z,40.30
2022-12-01T11:48:34.346Z,38.80
2022-12-01T11:49:40.081Z,38.40
2022-12-01T11:50:42.566Z,38.30
2022-12-01T11:51:45.415Z,38.50
2022-12-01T11:52:47.672Z,36.91
2022-12-01T11:53:50.112Z,37.80
2022-12-01T11:54:57.224Z,37.60
2022-12-01T11:56:24.075Z,36.80
2022-12-01T11:57:35.485Z,34.30
2022-12-01T11:58:32.120Z,31.80
2022-12-01T11:59:34.290Z,23.80
2022-12-01T12:02:08.116Z,28.80
2022-12-01T12:04:45.907Z,28.90
2022-12-01T12:06:38.947Z,29.80
2022-12-01T12:07:28.765Z,26.80
2022-12-01T12:08:51.632Z,25.80
2022-12-01T12:10:12.927Z,25.20
2022-12-01T12:11:24.963Z,24.20
2022-12-01T12:12:46.901Z,24.40
2022-12-01T12:14:19.843Z,26.80
2022-12-01T12:15:35.104Z,22.40
2022-12-01T12:16:47.234Z,22.10
2022-12-01T12:18:20.045Z,23.50
2022-12-01T12:20:06.093Z,22.70
2022-12-01T12:20:50.143Z,21.50
2022-12-01T12:22:14.681Z,20.60
2022-12-01T12:23:32.841Z,21.40
2022-12-01T12:24:55.012Z,22.00
2022-12-01T12:26:21.154Z,24.00
2022-12-01T12:27:36.176Z,23.90
2022-12-01T12:28:43.417Z,22.70
2022-12-01T12:30:08.858Z,20.40
2022-12-01T12:31:14.876Z,15.50
2022-12-01T12:32:40.061Z,21.80
2022-12-01T12:34:06.838Z,22.10
2022-12-01T12:35:21.783Z,18.50
2022-12-01T12:36:39.933Z,19.90
2022-12-01T12:39:26.598Z,16.80
2022-12-01T12:40:51.179Z,17.30
2022-12-01T12:41:56.306Z,18.00
2022-12-01T12:43:18.841Z,18.50
2022-12-01T12:44:49.315Z,17.50
2022-12-01T12:46:15.278Z,17.70
2022-12-01T12:47:40.903Z,16.30
2022-12-01T12:50:07.397Z,14.60
2022-12-01T12:51:20.988Z,15.50
2022-12-01T12:52:33.746Z,17.60
2022-12-01T12:55:14.293Z,12.60
2022-12-01T12:56:18.499Z,14.20
2022-12-01T12:58:41.079Z,14.50
2022-12-01T12:59:49.506Z,12.40
2022-12-01T13:00:55.798Z,12.20
2022-12-01T13:02:13.738Z,14.50
2022-12-01T13:04:42.533Z,12.90
2022-12-01T13:05:49.498Z,15.00
2022-12-01T13:06:59.751Z,15.90
2022-12-01T13:08:15.821Z,17.60
2022-12-01T13:09:23.767Z,13.20
2022-12-01T13:10:29.793Z,13.60
2022-12-01T13:11:36.166Z,16.10
2022-12-01T13:12:40.937Z,14.50
2022-12-01T13:13:57.139Z,14.60
2022-12-01T13:16:33.926Z,14.50
2022-12-01T13:17:37.734Z,11.90
2022-12-01T13:18:52.137Z,15.70
2022-12-01T13:19:54.415Z,16.40
2022-12-01T13:20:56.512Z,15.00
2022-12-01T13:21:59.411Z,14.18
2022-12-01T13:23:02.627Z,15.00
2022-12-01T13:24:05.386Z,11.80
2022-12-01T13:25:09.767Z,14.09
2022-12-01T13:26:14.395Z,15.00
2022-12-01T13:27:20.577Z,16.40
2022-12-01T13:28:28.362Z,10.60
2022-12-01T13:29:33.396Z,15.00
2022-12-01T13:30:35.607Z,13.50
2022-12-01T13:31:42.367Z,13.40
2022-12-01T13:32:44.904Z,15.20
2022-12-01T13:34:03.634Z,12.10
2022-12-01T13:35:26.414Z,14.60
2022-12-01T13:36:46.139Z,13.80
2022-12-01T13:37:36.286Z,11.10
2022-12-01T13:38:42.185Z,12.10
2022-12-01T13:39:45.603Z,12.10
2022-12-01T13:40:48.475Z,13.90
2022-12-01T13:42:00.709Z,12.30
2022-12-01T13:43:10.292Z,14.80
2022-12-01T13:44:40.503Z,13.00
2022-12-01T13:45:43.151Z,14.90
2022-12-01T13:46:49.521Z,14.60
2022-12-01T13:47:53.990Z,14.90
2022-12-01T13:48:57.942Z,14.40
2022-12-01T13:50:20.273Z,14.20
2022-12-01T13:51:23.598Z,13.80
2022-12-01T13:52:28.960Z,15.50
2022-12-01T13:53:35.915Z,15.60
2022-12-01T13:54:40.340Z,13.30
2022-12-01T13:55:58.625Z,15.00
2022-12-01T13:57:03.222Z,16.30
2022-12-01T13:58:09.264Z,14.40
2022-12-01T14:00:47.424Z,17.10
2022-12-01T14:01:51.036Z,15.70
2022-12-01T14:03:17.128Z,13.10
2022-12-01T14:04:26.134Z,17.70
2022-12-01T14:05:56.348Z,16.30
2022-12-01T14:08:29.455Z,14.70
2022-12-01T14:09:36.323Z,14.60
2022-12-01T14:10:38.608Z,13.80
2022-12-01T14:11:40.714Z,17.30
2022-12-01T14:12:44.097Z,16.50
2022-12-01T14:13:53.850Z,15.20
2022-12-01T14:14:59.780Z,17.00
2022-12-01T14:16:02.961Z,15.60
2022-12-01T14:17:06.476Z,15.30
2022-12-01T14:18:27.671Z,16.50
2022-12-01T14:19:34.652Z,16.80
2022-12-01T14:20:40.703Z,17.70
2022-12-01T14:23:16.820Z,17.40
2022-12-01T14:24:23.708Z,11.70
2022-12-01T14:25:27.187Z,15.60
2022-12-01T14:26:29.713Z,16.30
2022-12-01T14:27:37.676Z,14.30
2022-12-01T14:29:01.674Z,14.80
2022-12-01T14:30:43.830Z,14.80
2022-12-01T14:31:55.516Z,15.70
2022-12-01T14:34:37.373Z,13.00
2022-12-01T14:35:39.503Z,12.20
2022-12-01T14:36:43.284Z,12.30
2022-12-01T14:37:47.693Z,15.10
2022-12-01T14:39:02.910Z,14.50
2022-12-01T14:41:24.526Z,12.30
2022-12-01T14:42:38.415Z,14.00
2022-12-01T14:43:41.048Z,14.40
2022-12-01T14:44:47.680Z,13.00
2022-12-01T14:45:56.109Z,11.00
2022-12-01T14:47:07.334Z,14.20
2022-12-01T14:48:12.303Z,13.20
2022-12-01T14:49:18.957Z,12.60
2022-12-01T14:50:46.596Z,12.60
2022-12-01T14:51:49.312Z,9.10
2022-12-01T14:52:55.062Z,13.80
2022-12-01T14:53:57.866Z,13.10
2022-12-01T18:09:47.818Z,27.50
2022-12-01T18:10:50.159Z,22.90
2022-12-01T18:11:54.500Z,22.00
2022-12-01T18:12:56.720Z,22.50
2022-12-01T18:14:02.826Z,22.60
2022-12-01T18:15:06.758Z,14.30
2022-12-01T18:16:14.547Z,24.10
2022-12-01T18:17:17.675Z,21.00
2022-12-01T18:18:19.814Z,19.64
2022-12-01T18:19:21.917Z,19.70
2022-12-01T18:20:24.175Z,20.00
2022-12-01T18:21:27.201Z,11.00
2022-12-01T18:22:29.370Z,19.50
2022-12-01T18:23:33.478Z,25.10
2022-12-01T18:24:36.372Z,23.30
2022-12-01T18:25:39.592Z,19.64
2022-12-01T18:26:43.683Z,21.90
2022-12-01T18:27:46.679Z,20.10
2022-12-01T18:33:14.874Z,20.00
2022-12-01T18:35:19.857Z,18.60
2022-12-01T18:36:23.910Z,20.10
2022-12-01T18:37:27.218Z,21.00
2022-12-01T18:38:30.375Z,23.10
2022-12-01T18:39:34.605Z,20.60
2022-12-01T18:40:38.485Z,21.20
2022-12-01T18:41:41.028Z,24.80
2022-12-01T18:42:44.217Z,22.60
2022-12-01T18:43:47.619Z,10.60
2022-12-01T18:46:54.994Z,17.40
2022-12-01T18:47:59.219Z,19.30
2022-12-01T18:49:03.341Z,20.90
2022-12-01T18:51:09.610Z,22.10
2022-12-01T18:52:12.612Z,21.20
2022-12-01T18:53:16.151Z,20.40
2022-12-01T18:54:18.187Z,21.18
2022-12-01T18:55:20.527Z,21.90
2022-12-01T18:56:23.350Z,21.50
2022-12-01T18:57:25.986Z,22.70
2022-12-01T18:58:29.764Z,21.18
2022-12-01T18:59:31.996Z,13.20
2022-12-01T19:00:36.596Z,20.50
2022-12-01T19:01:41.164Z,20.20
2022-12-01T19:02:44.041Z,21.50
2022-12-01T19:03:46.424Z,20.40
2022-12-01T19:04:49.070Z,15.10
2022-12-01T19:05:51.984Z,22.70
2022-12-01T19:06:55.957Z,22.00
2022-12-01T19:08:00.027Z,21.70
2022-12-01T19:09:03.542Z,18.80
2022-12-01T19:10:07.404Z,22.20
2022-12-01T19:11:09.733Z,20.90
2022-12-01T19:12:12.027Z,10.40
2022-12-01T19:13:14.728Z,19.27
2022-12-01T19:14:18.825Z,18.40
2022-12-01T19:15:22.171Z,18.60
2022-12-01T19:16:28.044Z,20.90
2022-12-01T19:17:31.348Z,22.70
2022-12-01T19:18:35.683Z,18.50
2022-12-01T19:19:37.931Z,19.00
2022-12-01T19:20:42.524Z,22.40
2022-12-01T19:21:46.339Z,22.00
2022-12-01T19:22:48.648Z,19.00
2022-12-01T19:23:51.560Z,18.60
2022-12-01T19:24:55.901Z,20.70
2022-12-01T19:26:01.788Z,18.70
2022-12-01T19:27:05.426Z,18.70
2022-12-01T19:28:07.600Z,20.30
2022-12-01T19:29:10.924Z,20.80
2022-12-01T19:30:15.608Z,20.60
2022-12-01T19:31:20.676Z,23.20
2022-12-01T19:32:24.945Z,22.20
2022-12-01T19:34:34.450Z,21.40
2022-12-01T19:38:45.241Z,21.60
2022-12-01T19:39:52.944Z,20.10
2022-12-01T19:40:56.212Z,23.40
2022-12-01T19:41:59.936Z,19.80
2022-12-01T19:43:03.682Z,19.60
2022-12-01T19:44:09.131Z,21.40
2022-12-01T19:45:13.932Z,21.80
2022-12-01T19:46:19.013Z,18.10
2022-12-01T19:47:25.661Z,19.70
2022-12-01T19:49:31.067Z,20.20
2022-12-01T19:50:34.880Z,22.50
2022-12-01T19:51:38.122Z,20.60
2022-12-01T19:52:40.632Z,21.40
2022-12-01T19:53:43.112Z,19.50
2022-12-01T19:54:48.895Z,21.45
2022-12-01T19:55:52.700Z,22.10
2022-12-01T19:57:01.619Z,22.50
2022-12-01T19:58:04.079Z,25.30
2022-12-01T19:59:06.088Z,25.70
2022-12-01T20:01:17.035Z,23.80
2022-12-01T20:02:19.797Z,21.60
2022-12-01T20:03:24.136Z,23.10
2022-12-01T20:05:30.064Z,24.50
2022-12-01T20:06:33.415Z,24.30
2022-12-01T20:07:36.644Z,22.60
2022-12-01T20:11:53.097Z,21.00
2022-12-01T20:13:58.436Z,20.40
2022-12-01T20:15:00.538Z,20.50
2022-12-01T20:16:04.698Z,22.20
2022-12-01T20:19:11.677Z,24.30
2022-12-01T20:20:14.791Z,25.30
2022-12-01T20:21:22.876Z,22.70
2022-12-01T20:22:24.999Z,22.50
2022-12-01T20:23:28.243Z,22.50
2022-12-01T20:24:31.303Z,24.90
2022-12-01T20:25:34.178Z,25.60
2022-12-01T20:26:38.659Z,22.80
2022-12-01T20:27:40.794Z,24.20
2022-12-01T20:28:43.786Z,23.40
2022-12-01T20:29:47.395Z,27.20
2022-12-01T20:30:50.519Z,25.90
2022-12-01T20:31:55.599Z,26.60
2022-12-01T20:32:57.897Z,22.80
2022-12-01T20:34:04.158Z,20.60
2022-12-01T20:35:07.201Z,24.20
2022-12-01T20:36:10.818Z,24.00
2022-12-01T20:37:14.793Z,24.90
2022-12-01T20:39:21.088Z,16.50
2022-12-01T20:40:24.773Z,25.10
2022-12-01T20:41:27.496Z,23.10
2022-12-01T20:42:29.605Z,26.30
2022-12-01T20:45:38.232Z,22.10
2022-12-01T20:47:43.916Z,22.60
2022-12-01T20:54:27.436Z,23.00
2022-12-01T20:55:07.253Z,26.90
2022-12-01T20:57:13.467Z,25.00
2022-12-01T20:59:19.092Z,24.10
2022-12-01T21:00:22.816Z,23.80
2022-12-01T21:01:26.667Z,23.40
2022-12-01T21:06:43.588Z,24.20
2022-12-01T21:08:49.965Z,20.90
2022-12-01T21:12:59.552Z,22.70
2022-12-01T21:14:01.666Z,21.00
2022-12-01T21:15:28.287Z,21.40
2022-12-01T21:17:40.383Z,22.20
2022-12-01T21:18:51.802Z,23.70
2022-12-01T21:20:00.220Z,22.40
2022-12-01T21:21:06.209Z,22.70
2022-12-01T21:22:12.613Z,22.10
2022-12-01T21:23:15.246Z,24.50
2022-12-01T21:24:18.357Z,22.20
2022-12-01T21:25:22.415Z,20.90
2022-12-01T21:26:25.067Z,26.70
2022-12-01T21:27:28.073Z,23.80
2022-12-01T21:28:30.211Z,22.20
2022-12-01T21:29:39.773Z,21.80
2022-12-01T21:30:42.659Z,19.90
2022-12-01T21:31:46.297Z,22.20
2022-12-01T21:32:48.783Z,20.10
2022-12-01T21:33:51.836Z,23.80
2022-12-01T21:34:53.985Z,23.60
2022-12-01T21:35:59.088Z,21.45
2022-12-01T21:37:04.162Z,23.10
2022-12-01T21:38:12.310Z,20.00
2022-12-01T21:39:16.965Z,25.00
2022-12-01T21:40:26.255Z,22.00
2022-12-01T21:41:30.210Z,22.00
2022-12-01T21:42:32.415Z,23.40
2022-12-01T21:43:38.491Z,23.60
2022-12-01T21:44:40.655Z,20.90
2022-12-01T21:45:42.826Z,24.50
2022-12-01T21:46:45.342Z,21.40
2022-12-01T21:47:47.410Z,21.40
2022-12-01T21:48:49.385Z,22.10
2022-12-01T21:49:54.404Z,19.50
2022-12-01T21:50:58.926Z,24.20
2022-12-01T21:52:03.056Z,19.50
2022-12-01T21:53:15.226Z,21.40
2022-12-01T21:54:21.129Z,20.30
2022-12-01T21:55:27.096Z,21.10
2022-12-01T21:56:30.354Z,16.80
2022-12-01T21:57:42.835Z,19.60
2022-12-01T21:58:45.225Z,21.00
2022-12-01T21:59:48.927Z,22.20
2022-12-01T22:00:52.072Z,14.60
2022-12-01T22:01:56.010Z,20.70
2022-12-01T22:03:33.991Z,19.50
2022-12-01T22:04:38.039Z,22.70
2022-12-01T22:06:01.045Z,20.90
2022-12-01T22:06:53.665Z,22.30
2022-12-01T22:09:31.201Z,23.50
2022-12-01T22:10:58.068Z,18.00
2022-12-01T22:12:16.056Z,18.80
2022-12-01T22:13:18.898Z,19.20
2022-12-01T22:14:23.158Z,18.73
2022-12-01T22:15:31.889Z,22.20
2022-12-01T22:17:57.798Z,17.80
2022-12-01T22:19:02.590Z,18.67
